MSC Mandraki — SZUH — position and weather

sailwx.info

Track history (hours):
 
Tides and Currents Weather Stations Pressure Air Temp Water Temp Dewpoint Dewpoint Depression Visibility Wind Speed Wind Dir Waves Ship Positions

MSC Mandraki

Last reported at 2014-Dec-22 12:33 UTC. Time now 2014-Dec-22 21:19 UTC.
Position S 35°31' E 138°00'.

Length 294 m; draft 9.8 m.

Type: Ship. MMSI: 240265000.

Date/timePositionNaut miles runAvg speedWind from/ knotsBaromVisibWave heightAir tempDewpointWater temp
2014-Dec-22 12:33S 35°31' E 138°00'2612.9
2014-Dec-22 10:31S 35°52' E 138°19'17814.6
2014-Dec-21 22:19S 38°12' E 140°38'1115.0
2014-Dec-21 21:33S 38°17' E 140°51'2114.7
2014-Dec-21 20:08S 38°25' E 141°15'914.7
2014-Dec-21 19:32S 38°28' E 141°26'1414.5
2014-Dec-21 18:33S 38°33' E 141°43'1514.5
2014-Dec-21 17:33S 38°38' E 142°00'1414.5
2014-Dec-21 16:33S 38°43' E 142°18'1514.5
2014-Dec-21 15:33S 38°48' E 142°35'1514.7
2014-Dec-21 14:32S 38°52' E 142°54'1514.9
2014-Dec-21 13:32S 38°54' E 143°13'1414.6
2014-Dec-21 12:32S 38°55' E 143°31'1414.2
2014-Dec-21 11:32S 38°57' E 143°49'1414.0
2014-Dec-21 10:32S 38°59' E 144°07'1413.9
2014-Dec-21 09:33S 39°01' E 144°25'1413.9
2014-Dec-21 08:34S 39°03' E 144°42'1414.2
2014-Dec-21 07:33S 39°04' E 145°00'1514.7
2014-Dec-21 06:34S 39°06' E 145°19'1514.7
2014-Dec-21 05:33S 39°08' E 145°38'1514.8
2014-Dec-21 04:34S 39°10' E 145°57'1514.6
2014-Dec-21 03:33S 39°12' E 146°16'1514.6
2014-Dec-21 02:34S 39°08' E 146°34'1514.5
2014-Dec-21 01:33S 39°02' E 146°51'1514.7
2014-Dec-21 00:33S 38°58' E 147°09'1515.0
2014-Dec-20 23:33S 38°53' E 147°27'1515.0
2014-Dec-20 22:33S 38°49' E 147°46'1715.0
2014-Dec-20 21:24S 38°44' E 148°07'1514.8
2014-Dec-20 20:24S 38°38' E 148°25'5115.6
2014-Dec-20 17:07S 38°11' E 149°20'2224.5
2014-Dec-20 16:13S 37°59' E 149°43'2 3.0
2014-Dec-20 15:30S 37°57' E 149°45'1312.4
2014-Dec-20 14:29S 37°50' E 149°58'1314.7
2014-Dec-20 13:33S 37°38' E 150°05'1514.9
2014-Dec-20 12:33S 37°23' E 150°10'  
2014-Dec-17 06:25S 38°27' E 148°57'  
2014-Dec-14 13:28S 39°02' E 143°11'1914.6
2014-Dec-14 12:10S 39°03' E 142°46'914.6
2014-Dec-14 11:33S 39°04' E 142°35'1414.5
2014-Dec-14 10:33S 39°04' E 142°16'1514.5
2014-Dec-14 09:29S 39°06' E 141°56'1614.4
2014-Dec-14 08:24S 39°06' E 141°36'  
Track history (hours):
 
Tides and Currents Weather Stations Pressure Air Temp Water Temp Dewpoint Dewpoint Depression Visibility Wind Speed Wind Dir Waves Ship Positions

MSC Mandraki

Last reported at 2014-Dec-22 12:33 UTC. Time now 2014-Dec-22 21:19 UTC.
Position S 35°31' E 138°00'.

Length 294 m; draft 9.8 m.

Type: Ship. MMSI: 240265000.

Date/timePositionNaut miles runAvg speedWind from/ knotsBaromVisibWave heightAir tempDewpointWater temp
2014-Dec-22 12:33S 35°31' E 138°00'2612.9
2014-Dec-22 10:31S 35°52' E 138°19'17814.6
2014-Dec-21 22:19S 38°12' E 140°38'1115.0
2014-Dec-21 21:33S 38°17' E 140°51'2114.7
2014-Dec-21 20:08S 38°25' E 141°15'914.7
2014-Dec-21 19:32S 38°28' E 141°26'1414.5
2014-Dec-21 18:33S 38°33' E 141°43'1514.5
2014-Dec-21 17:33S 38°38' E 142°00'1414.5
2014-Dec-21 16:33S 38°43' E 142°18'1514.5
2014-Dec-21 15:33S 38°48' E 142°35'1514.7
2014-Dec-21 14:32S 38°52' E 142°54'1514.9
2014-Dec-21 13:32S 38°54' E 143°13'1414.6
2014-Dec-21 12:32S 38°55' E 143°31'1414.2
2014-Dec-21 11:32S 38°57' E 143°49'1414.0
2014-Dec-21 10:32S 38°59' E 144°07'1413.9
2014-Dec-21 09:33S 39°01' E 144°25'1413.9
2014-Dec-21 08:34S 39°03' E 144°42'1414.2
2014-Dec-21 07:33S 39°04' E 145°00'1514.7
2014-Dec-21 06:34S 39°06' E 145°19'1514.7
2014-Dec-21 05:33S 39°08' E 145°38'1514.8
2014-Dec-21 04:34S 39°10' E 145°57'1514.6
2014-Dec-21 03:33S 39°12' E 146°16'1514.6
2014-Dec-21 02:34S 39°08' E 146°34'1514.5
2014-Dec-21 01:33S 39°02' E 146°51'1514.7
2014-Dec-21 00:33S 38°58' E 147°09'1515.0
2014-Dec-20 23:33S 38°53' E 147°27'1515.0
2014-Dec-20 22:33S 38°49' E 147°46'1715.0
2014-Dec-20 21:24S 38°44' E 148°07'1514.8
2014-Dec-20 20:24S 38°38' E 148°25'5115.6
2014-Dec-20 17:07S 38°11' E 149°20'2224.5
2014-Dec-20 16:13S 37°59' E 149°43'2 3.0
2014-Dec-20 15:30S 37°57' E 149°45'1312.4
2014-Dec-20 14:29S 37°50' E 149°58'1314.7
2014-Dec-20 13:33S 37°38' E 150°05'1514.9
2014-Dec-20 12:33S 37°23' E 150°10'  
2014-Dec-17 06:25S 38°27' E 148°57'  
2014-Dec-14 13:28S 39°02' E 143°11'1914.6
2014-Dec-14 12:10S 39°03' E 142°46'914.6
2014-Dec-14 11:33S 39°04' E 142°35'1414.5
2014-Dec-14 10:33S 39°04' E 142°16'1514.5
2014-Dec-14 09:29S 39°06' E 141°56'1614.4
2014-Dec-14 08:24S 39°06' E 141°36'  

Dump ship's entire track history